Time;durP1;ratioP1;P1;durP2;ratioP2;P2;SDS_P1;SDS_P2;PMS_P1;PMS_P2;Temp;Humidity;BMP_temperature;BMP_pressure;BME280_temperature;BME280_humidity;BME280_pressure;Samples;Min_cycle;Max_cycle;Signal;HPM_P1;HPM_P2
2022/06/17 00:02:35;;;;;;;2.70;1.95;;;19.70;71.40;;;;;;1840314;76;21093;-63
2022/06/17 00:05:06;;;;;;;2.98;2.20;;;19.60;71.70;;;;;;1850337;77;21120;-63
2022/06/17 00:07:35;;;;;;;2.90;2.42;;;19.50;72.00;;;;;;1850202;77;21038;-63
2022/06/17 00:10:06;;;;;;;2.40;2.20;;;19.50;72.00;;;;;;1850350;77;21066;-63
2022/06/17 00:12:36;;;;;;;4.47;2.37;;;19.50;72.20;;;;;;1850269;77;21476;-63
2022/06/17 00:15:12;;;;;;;3.75;2.20;;;19.50;72.60;;;;;;1850311;77;21062;-63
2022/06/17 00:18:01;;;;;;;2.70;2.50;;;19.50;72.70;;;;;;1850350;77;21058;-63
2022/06/17 00:20:19;;;;;;;2.70;2.20;;;19.50;72.90;;;;;;1845796;77;21116;-63
2022/06/17 00:22:49;;;;;;;3.08;2.62;;;19.50;73.10;;;;;;1850251;77;21109;-63
2022/06/17 00:25:27;;;;;;;4.40;2.30;;;19.50;73.30;;;;;;1850284;77;21101;-63
2022/06/17 00:27:58;;;;;;;4.33;2.65;;;19.50;73.10;;;;;;1850273;77;21042;-63
2022/06/17 00:30:29;;;;;;;4.53;2.40;;;19.50;73.10;;;;;;1850287;77;21045;-63
2022/06/17 00:33:01;;;;;;;2.65;2.05;;;19.50;72.90;;;;;;1850317;77;21488;-63
2022/06/17 00:35:33;;;;;;;2.42;2.17;;;19.40;72.70;;;;;;1850336;77;21042;-63
2022/06/17 00:38:03;;;;;;;3.65;2.12;;;19.40;72.70;;;;;;1850304;77;21096;-63
2022/06/17 00:40:34;;;;;;;3.47;1.98;;;19.40;73.80;;;;;;1850176;77;21107;-63
2022/06/17 00:43:06;;;;;;;4.97;3.27;;;19.30;73.20;;;;;;1850149;77;21100;-63
2022/06/17 00:45:44;;;;;;;3.92;2.10;;;19.30;72.60;;;;;;1850316;77;21489;-63
2022/06/17 00:48:17;;;;;;;4.37;2.27;;;19.30;73.10;;;;;;1850289;77;21041;-63
2022/06/17 00:50:57;;;;;;;2.60;2.33;;;19.20;73.90;;;;;;1850222;77;21036;-63
2022/06/17 00:53:30;;;;;;;3.40;2.35;;;19.20;73.90;;;;;;1850272;77;21548;-63
2022/06/17 00:56:08;;;;;;;4.45;2.55;;;19.20;73.40;;;;;;1850311;77;21089;-63
2022/06/17 00:59:01;;;;;;;3.17;2.17;;;19.10;73.00;;;;;;1849774;77;21034;-62
2022/06/17 01:01:40;;;;;;;2.58;2.27;;;19.00;72.90;;;;;;1850160;77;21038;-63
2022/06/17 01:04:11;;;;;;;2.58;2.27;;;19.00;73.00;;;;;;1849457;77;21046;-63
2022/06/17 01:06:43;;;;;;;4.92;2.25;;;19.00;73.30;;;;;;1850154;77;21117;-63
2022/06/17 01:12:20;;;;;;;2.52;2.20;;;19.00;73.80;;;;;;1850450;77;21070;-63
2022/06/17 01:14:50;;;;;;;5.47;2.62;;;19.10;73.70;;;;;;1850257;77;21045;-63
2022/06/17 01:17:20;;;;;;;2.90;2.40;;;19.10;73.50;;;;;;1850386;77;21061;-63
2022/06/17 01:20:00;;;;;;;4.92;2.50;;;19.10;73.30;;;;;;1850029;77;21053;-63
2022/06/17 01:22:51;;;;;;;4.95;2.40;;;19.10;72.90;;;;;;1849994;77;21135;-63
2022/06/17 01:25:29;;;;;;;2.47;2.20;;;19.10;73.50;;;;;;1850401;77;21128;-63
2022/06/17 01:28:02;;;;;;;2.42;2.22;;;19.00;74.10;;;;;;1850229;77;21551;-63
2022/06/17 01:30:33;;;;;;;2.08;1.80;;;19.00;74.20;;;;;;1850403;77;21108;-63
2022/06/17 01:33:11;;;;;;;5.22;2.35;;;19.00;74.50;;;;;;1850342;77;21547;-63
2022/06/17 01:35:44;;;;;;;2.02;1.80;;;19.10;74.40;;;;;;1850375;77;21065;-63
2022/06/17 01:38:14;;;;;;;5.03;1.92;;;19.10;74.50;;;;;;1850173;77;21117;-63
2022/06/17 01:40:44;;;;;;;3.22;2.42;;;19.10;74.80;;;;;;1850261;77;21116;-63
2022/06/17 01:43:16;;;;;;;3.72;2.45;;;19.10;74.70;;;;;;1850262;77;21034;-63
2022/06/17 01:45:48;;;;;;;3.33;2.20;;;19.10;74.60;;;;;;1850358;77;21130;-63
2022/06/17 01:48:20;;;;;;;3.52;2.30;;;19.10;74.60;;;;;;1819461;77;21096;-63
2022/06/17 01:50:52;;;;;;;3.15;2.27;;;19.00;74.70;;;;;;1850313;77;21085;-63
2022/06/17 01:53:24;;;;;;;2.62;1.85;;;19.00;74.90;;;;;;1850242;77;21116;-63
2022/06/17 01:56:04;;;;;;;6.15;3.05;;;19.00;75.00;;;;;;1850244;77;21077;-63
2022/06/17 01:58:47;;;;;;;2.85;2.52;;;19.00;74.80;;;;;;1846283;77;21042;-63
2022/06/17 02:01:19;;;;;;;5.33;2.33;;;19.00;74.60;;;;;;1850395;77;21070;-63
2022/06/17 02:03:51;;;;;;;2.77;2.20;;;19.00;74.40;;;;;;1827006;77;21054;-63
2022/06/17 02:06:26;;;;;;;3.98;2.35;;;18.90;74.20;;;;;;1789099;79;21155;-63
2022/06/17 02:08:56;;;;;;;2.50;2.17;;;18.80;74.50;;;;;;1854741;77;21096;-62
2022/06/17 02:11:27;;;;;;;2.60;1.82;;;18.70;74.70;;;;;;1855949;77;21092;-62
2022/06/17 02:13:57;;;;;;;4.12;2.00;;;18.70;75.10;;;;;;1854210;77;21018;-63
2022/06/17 02:16:31;;;;;;;3.95;2.12;;;18.70;75.20;;;;;;1853075;77;21523;-63
2022/06/17 02:19:03;;;;;;;4.78;2.33;;;18.70;75.40;;;;;;1852686;77;21123;-62
2022/06/17 02:21:38;;;;;;;3.27;2.77;;;18.70;75.20;;;;;;1855992;77;21041;-62
2022/06/17 02:24:10;;;;;;;3.65;2.30;;;18.80;75.10;;;;;;1856088;77;21127;-63
2022/06/17 02:26:41;;;;;;;8.38;3.55;;;18.90;74.90;;;;;;1856025;77;21199;-62
2022/06/17 02:29:13;;;;;;;3.47;2.40;;;18.90;74.70;;;;;;1855900;77;21104;-62
2022/06/17 02:31:44;;;;;;;5.30;3.58;;;18.90;74.60;;;;;;1855936;77;21021;-63
2022/06/17 02:34:16;;;;;;;2.83;2.42;;;18.80;74.50;;;;;;1855961;77;21018;-62
2022/06/17 02:36:51;;;;;;;5.95;2.62;;;18.70;75.00;;;;;;1855960;77;21046;-62
2022/06/17 02:39:20;;;;;;;2.85;2.20;;;18.70;75.30;;;;;;1856157;77;21045;-62
2022/06/17 02:41:51;;;;;;;3.58;2.77;;;18.80;75.40;;;;;;1855870;77;21101;-62
2022/06/17 02:44:29;;;;;;;4.33;3.25;;;18.90;75.20;;;;;;1855935;77;21045;-62
2022/06/17 02:47:01;;;;;;;5.55;2.55;;;18.90;74.90;;;;;;1855894;77;21037;-62
2022/06/17 02:49:33;;;;;;;4.75;2.83;;;19.00;74.50;;;;;;1856007;77;21088;-62
2022/06/17 02:52:06;;;;;;;3.90;2.58;;;19.10;74.00;;;;;;1855938;77;21534;-62
2022/06/17 02:54:38;;;;;;;13.60;3.75;;;19.20;73.90;;;;;;1855885;77;21085;-62
2022/06/17 02:57:10;;;;;;;3.95;2.50;;;19.20;73.90;;;;;;1856081;77;21060;-61
2022/06/17 02:59:47;;;;;;;5.92;2.33;;;19.30;73.60;;;;;;1856099;77;21060;-61
2022/06/17 03:02:24;;;;;;;5.75;2.30;;;19.40;73.30;;;;;;1856035;77;21132;-62
2022/06/17 03:04:56;;;;;;;3.00;1.90;;;19.30;73.40;;;;;;1828656;78;21084;-62
2022/06/17 03:07:28;;;;;;;2.85;2.27;;;19.40;73.40;;;;;;1829768;78;21049;-62
2022/06/17 03:09:59;;;;;;;5.08;2.45;;;19.40;73.40;;;;;;1828590;78;21068;-62
2022/06/17 03:12:31;;;;;;;7.90;2.20;;;19.40;73.40;;;;;;1829699;78;21061;-62
2022/06/17 03:15:06;;;;;;;3.47;2.12;;;19.50;73.30;;;;;;1829820;78;21061;-62
2022/06/17 03:17:41;;;;;;;6.95;2.50;;;19.60;73.10;;;;;;1829519;78;21049;-61
2022/06/17 03:20:16;;;;;;;5.53;2.30;;;19.80;73.00;;;;;;1830030;78;21076;-62
2022/06/17 03:22:49;;;;;;;4.00;2.52;;;19.90;72.70;;;;;;1829661;78;21037;-62
2022/06/17 03:25:25;;;;;;;2.47;2.27;;;20.10;72.60;;;;;;1829719;78;21077;-62
2022/06/17 03:28:02;;;;;;;3.70;2.12;;;20.20;72.30;;;;;;1829731;78;21187;-62
2022/06/17 03:30:47;;;;;;;9.83;3.00;;;20.40;72.00;;;;;;1829888;78;21112;-62
2022/06/17 03:33:29;;;;;;;10.93;2.37;;;20.60;71.90;;;;;;1829819;78;21077;-62
2022/06/17 03:36:19;;;;;;;9.33;2.52;;;20.70;71.50;;;;;;1829708;78;21135;-62
2022/06/17 03:38:53;;;;;;;7.80;3.00;;;20.90;71.30;;;;;;1900602;75;21098;-62
2022/06/17 03:41:37;;;;;;;5.97;2.40;;;21.10;71.00;;;;;;1900669;74;21088;-63
2022/06/17 03:44:24;;;;;;;4.10;2.42;;;21.10;70.40;;;;;;1900401;75;21032;-64
2022/06/17 03:46:57;;;;;;;2.92;2.30;;;21.20;70.00;;;;;;1900758;75;20996;-62
2022/06/17 03:49:35;;;;;;;8.00;2.47;;;21.20;69.50;;;;;;1899788;74;21482;-62
2022/06/17 03:52:07;;;;;;;4.47;2.22;;;21.30;69.40;;;;;;1900747;75;21119;-62
2022/06/17 03:54:37;;;;;;;4.45;2.40;;;21.30;69.00;;;;;;1899674;74;21510;-62
2022/06/17 03:57:09;;;;;;;3.08;2.30;;;21.20;68.80;;;;;;1900655;75;21114;-62
2022/06/17 03:59:40;;;;;;;4.28;2.05;;;21.20;69.60;;;;;;1900592;75;21118;-63
2022/06/17 04:02:12;;;;;;;2.95;2.22;;;21.10;69.40;;;;;;1900671;75;21048;-63
2022/06/17 04:04:45;;;;;;;3.22;2.20;;;21.10;69.60;;;;;;1900799;75;21086;-63
2022/06/17 04:07:16;;;;;;;6.25;2.50;;;21.20;69.50;;;;;;1900633;74;21051;-63
2022/06/17 04:09:47;;;;;;;4.40;2.35;;;21.30;69.50;;;;;;1900495;75;21030;-63
2022/06/17 04:12:28;;;;;;;4.62;2.62;;;21.50;69.30;;;;;;1900579;75;21106;-64
2022/06/17 04:15:27;;;;;;;5.08;2.30;;;21.60;68.90;;;;;;1898758;75;21048;-63
2022/06/17 04:17:56;;;;;;;6.12;2.95;;;21.80;68.80;;;;;;1900613;75;21052;-63
2022/06/17 04:20:46;;;;;;;4.47;2.37;;;22.00;68.60;;;;;;1900556;75;21482;-63
2022/06/17 04:23:21;;;;;;;10.70;2.98;;;22.10;68.40;;;;;;1900498;75;21032;-63
2022/06/17 04:26:12;;;;;;;6.87;2.47;;;22.30;67.90;;;;;;1879224;75;21047;-63
2022/06/17 04:28:46;;;;;;;12.07;5.15;;;22.40;67.70;;;;;;1900449;75;21542;-62
2022/06/17 04:31:20;;;;;;;9.60;4.00;;;22.50;67.70;;;;;;1900143;75;21137;-63
2022/06/17 04:33:53;;;;;;;6.70;3.47;;;22.50;67.70;;;;;;1900598;75;21125;-63
2022/06/17 04:36:25;;;;;;;4.20;3.10;;;22.50;68.00;;;;;;1900621;74;21118;-63
2022/06/17 04:39:18;;;;;;;9.30;3.90;;;22.60;68.40;;;;;;1892587;74;21150;-63
2022/06/17 04:41:52;;;;;;;8.05;4.47;;;22.70;67.90;;;;;;1888294;76;21089;-62
2022/06/17 04:44:29;;;;;;;17.40;8.98;;;22.60;68.00;;;;;;1890717;76;21135;-62
2022/06/17 04:47:13;;;;;;;22.35;8.38;;;22.60;67.90;;;;;;1891174;76;21025;-62
2022/06/17 04:49:53;;;;;;;21.17;9.88;;;22.70;68.30;;;;;;1889481;76;21154;-62
2022/06/17 04:52:34;;;;;;;22.27;9.90;;;22.70;67.90;;;;;;1891321;76;21153;-63
2022/06/17 04:55:15;;;;;;;19.17;7.45;;;22.70;68.00;;;;;;1825699;78;21072;-63
2022/06/17 04:57:52;;;;;;;22.40;9.20;;;22.80;67.70;;;;;;1888419;76;21080;-63
2022/06/17 05:00:25;;;;;;;19.67;7.33;;;22.80;68.00;;;;;;1891267;76;21112;-63
2022/06/17 05:02:57;;;;;;;22.05;8.03;;;22.90;67.90;;;;;;1890788;76;21552;-63
2022/06/17 05:05:45;;;;;;;17.02;7.17;;;23.10;67.90;;;;;;1889850;76;21132;-63
2022/06/17 05:08:35;;;;;;;17.15;7.55;;;23.20;67.80;;;;;;1891178;76;21005;-63
2022/06/17 05:11:18;;;;;;;13.15;6.67;;;23.30;67.10;;;;;;1891325;76;21122;-63
2022/06/17 05:13:50;;;;;;;20.10;5.92;;;23.40;66.80;;;;;;1891330;76;21032;-62
2022/06/17 05:16:22;;;;;;;21.77;5.37;;;23.50;66.30;;;;;;1889145;75;21135;-62
2022/06/17 05:18:52;;;;;;;16.27;4.87;;;23.60;65.10;;;;;;1891312;76;21040;-62
2022/06/17 05:21:24;;;;;;;17.90;5.53;;;23.70;65.00;;;;;;1891277;76;21024;-63
2022/06/17 05:24:02;;;;;;;12.58;5.65;;;23.70;64.40;;;;;;1891551;75;21193;-63
2022/06/17 05:26:32;;;;;;;8.88;4.83;;;23.80;63.80;;;;;;1891422;75;21091;-63
2022/06/17 05:29:02;;;;;;;9.28;4.92;;;23.90;62.90;;;;;;1891201;76;21017;-63
2022/06/17 05:31:32;;;;;;;12.68;6.95;;;23.90;62.90;;;;;;1891386;75;21076;-63
2022/06/17 05:34:06;;;;;;;9.03;5.45;;;23.90;62.00;;;;;;1891176;76;21553;-63
2022/06/17 05:36:37;;;;;;;12.05;5.03;;;24.10;61.50;;;;;;1891340;76;21056;-63
2022/06/17 05:39:06;;;;;;;11.85;5.12;;;24.10;60.90;;;;;;1891168;75;21074;-63
2022/06/17 05:41:36;;;;;;;10.43;5.28;;;24.10;59.90;;;;;;1891109;76;21024;-63
2022/06/17 05:44:06;;;;;;;10.65;5.80;;;24.20;60.10;;;;;;1891194;76;21021;-63
2022/06/17 05:46:39;;;;;;;13.03;5.30;;;24.30;59.70;;;;;;1891279;75;21065;-63
2022/06/17 05:49:28;;;;;;;9.00;5.35;;;24.40;59.10;;;;;;1891139;76;21044;-63
2022/06/17 05:52:01;;;;;;;13.13;5.22;;;24.50;59.20;;;;;;1891621;75;21104;-63
2022/06/17 05:54:32;;;;;;;17.12;5.30;;;24.50;59.00;;;;;;1884369;75;21146;-63
2022/06/17 05:57:09;;;;;;;9.73;5.30;;;24.70;58.40;;;;;;1890888;75;21134;-63
2022/06/17 05:59:38;;;;;;;14.58;6.90;;;24.80;58.20;;;;;;1891093;76;20993;-63
2022/06/17 06:02:10;;;;;;;11.05;5.60;;;24.90;57.70;;;;;;1891210;76;21130;-63
2022/06/17 06:04:57;;;;;;;17.55;6.67;;;24.90;57.40;;;;;;1891356;76;21118;-63
2022/06/17 06:07:28;;;;;;;13.88;7.22;;;25.00;57.70;;;;;;1891184;76;21082;-63
2022/06/17 06:09:58;;;;;;;16.07;5.97;;;25.10;57.20;;;;;;1895397;75;21108;-63
2022/06/17 06:12:53;;;;;;;6.30;2.83;;;25.20;56.90;;;;;;1903027;75;21023;-63
2022/06/17 06:14:59;;;;;;;11.08;2.95;;;25.30;56.20;;;;;;1900320;75;21053;-63
2022/06/17 06:17:30;;;;;;;4.47;2.72;;;25.30;55.00;;;;;;1902921;75;21138;-63
2022/06/17 06:20:00;;;;;;;5.47;3.25;;;25.30;54.90;;;;;;1903198;75;20998;-63
2022/06/17 06:22:30;;;;;;;8.43;2.50;;;25.30;54.80;;;;;;1903130;75;21049;-63
2022/06/17 06:25:00;;;;;;;8.18;3.90;;;25.30;55.00;;;;;;1903001;75;21084;-63
2022/06/17 06:27:29;;;;;;;5.25;2.80;;;25.30;55.20;;;;;;1902997;75;20998;-63
2022/06/17 06:30:00;;;;;;;2.42;1.50;;;25.40;55.50;;;;;;1903048;75;21469;-63
2022/06/17 06:32:30;;;;;;;1.62;1.10;;;25.50;54.50;;;;;;1903157;75;21010;-63
2022/06/17 06:35:17;;;;;;;2.25;1.77;;;25.50;52.60;;;;;;1902463;75;21066;-63
2022/06/17 06:37:46;;;;;;;6.30;1.55;;;25.60;53.30;;;;;;1903068;75;21093;-63
2022/06/17 06:40:17;;;;;;;4.05;1.40;;;25.70;53.20;;;;;;1902882;75;21041;-63
2022/06/17 06:42:48;;;;;;;3.80;1.70;;;25.80;52.80;;;;;;1903007;75;21025;-63
2022/06/17 06:45:36;;;;;;;3.67;1.55;;;25.90;52.30;;;;;;1801507;79;21061;-63
2022/06/17 06:48:08;;;;;;;4.42;1.50;;;25.90;52.10;;;;;;1871911;75;21030;-63
2022/06/17 06:50:38;;;;;;;3.10;1.52;;;25.90;51.50;;;;;;1903045;75;21123;-63
2022/06/17 06:53:08;;;;;;;5.45;1.35;;;25.90;51.00;;;;;;1903165;75;20990;-63
2022/06/17 06:55:38;;;;;;;1.60;1.07;;;25.90;51.00;;;;;;1903065;75;21095;-63
2022/06/17 06:58:16;;;;;;;2.45;1.02;;;26.10;50.40;;;;;;1903175;75;21010;-63
2022/06/17 07:00:50;;;;;;;1.87;1.30;;;26.10;50.40;;;;;;1902507;75;21109;-63
2022/06/17 07:03:20;;;;;;;4.08;1.40;;;26.20;50.60;;;;;;1902379;75;21038;-63
2022/06/17 07:05:52;;;;;;;4.03;2.02;;;26.30;50.60;;;;;;1903113;75;21469;-63
2022/06/17 07:08:25;;;;;;;3.70;1.47;;;26.40;51.30;;;;;;1902972;75;21034;-63
2022/06/17 07:10:56;;;;;;;3.92;2.02;;;26.40;49.90;;;;;;1904488;75;21133;-63
2022/06/17 07:13:25;;;;;;;2.35;1.27;;;26.40;48.30;;;;;;1906260;75;21062;-63
2022/06/17 07:15:55;;;;;;;2.92;1.55;;;26.40;49.30;;;;;;1906119;75;21085;-64
2022/06/17 07:18:28;;;;;;;2.95;1.30;;;26.40;48.40;;;;;;1906195;75;21022;-63
2022/06/17 07:20:59;;;;;;;1.40;1.30;;;26.40;48.50;;;;;;1906186;75;21087;-64
2022/06/17 07:23:34;;;;;;;4.58;1.47;;;26.40;49.10;;;;;;1906251;75;21026;-63
2022/06/17 07:26:06;;;;;;;3.80;1.60;;;26.50;49.60;;;;;;1906253;75;21511;-63
2022/06/17 07:28:35;;;;;;;2.52;1.40;;;26.60;49.30;;;;;;1906010;75;21034;-63
2022/06/17 07:31:05;;;;;;;1.90;1.32;;;26.70;46.30;;;;;;1906229;75;21014;-63
2022/06/17 07:33:35;;;;;;;4.05;1.85;;;26.70;46.30;;;;;;1904673;75;21077;-63
2022/06/17 07:36:06;;;;;;;3.55;1.60;;;26.70;46.40;;;;;;1904485;75;21497;-62
2022/06/17 07:41:26;;;;;;;2.12;1.07;;;26.70;46.20;;;;;;1794789;80;21064;-61
2022/06/17 07:43:56;;;;;;;3.47;1.20;;;26.70;46.10;;;;;;1792421;78;21097;-61
2022/06/17 07:46:27;;;;;;;3.87;1.62;;;26.70;45.70;;;;;;1793565;79;21085;-64
2022/06/17 07:48:57;;;;;;;2.55;1.20;;;26.60;44.50;;;;;;1774058;80;21186;-60
2022/06/17 07:51:27;;;;;;;6.05;1.30;;;26.60;44.50;;;;;;1796359;78;21093;-60
2022/06/17 07:53:56;;;;;;;3.33;1.12;;;26.60;45.00;;;;;;1796552;79;21104;-62
2022/06/17 07:56:26;;;;;;;2.02;1.10;;;26.70;45.20;;;;;;1795777;79;21178;-59
2022/06/17 07:58:56;;;;;;;2.47;1.55;;;26.70;44.70;;;;;;1794935;79;21167;-60
2022/06/17 08:01:26;;;;;;;6.55;1.42;;;26.70;44.70;;;;;;1795021;79;21093;-62
2022/06/17 08:03:56;;;;;;;2.58;1.10;;;26.80;44.20;;;;;;1794811;80;21048;-59
2022/06/17 08:06:25;;;;;;;3.08;1.30;;;26.80;43.40;;;;;;1770996;80;21028;-60
2022/06/17 08:08:55;;;;;;;5.50;3.08;;;26.80;43.80;;;;;;1767542;80;21106;-62
2022/06/17 08:11:25;;;;;;;3.25;1.62;;;26.80;43.80;;;;;;1767327;80;21122;-68
2022/06/17 08:13:54;;;;;;;5.22;1.45;;;26.80;43.60;;;;;;1767389;81;21051;-64
2022/06/17 08:16:24;;;;;;;16.20;2.87;;;26.90;43.60;;;;;;1767466;81;21102;-61
2022/06/17 08:18:53;;;;;;;2.55;1.52;;;26.90;44.00;;;;;;1767425;81;21052;-64
2022/06/17 08:21:22;;;;;;;1.20;1.05;;;26.90;43.30;;;;;;1767540;80;21074;-64
2022/06/17 08:23:51;;;;;;;1.55;1.10;;;26.90;43.80;;;;;;1767446;80;21102;-66
2022/06/17 08:26:21;;;;;;;2.80;1.40;;;27.00;43.90;;;;;;1767195;80;21566;-64
2022/06/17 08:28:50;;;;;;;4.22;1.30;;;27.00;43.80;;;;;;1767581;80;21110;-72
2022/06/17 08:31:20;;;;;;;1.95;1.47;;;26.90;44.00;;;;;;1767298;80;21123;-65
2022/06/17 08:33:49;;;;;;;4.55;1.47;;;26.90;43.60;;;;;;1767217;80;21121;-60
2022/06/17 08:36:22;;;;;;;5.30;1.62;;;26.80;43.60;;;;;;1767239;80;21106;-62
2022/06/17 08:38:54;;;;;;;3.27;1.67;;;26.80;43.30;;;;;;1767195;81;21494;-62
2022/06/17 08:41:32;;;;;;;3.55;1.40;;;26.80;43.70;;;;;;1766789;80;21107;-60
2022/06/17 08:44:28;;;;;;;2.95;1.50;;;26.90;43.80;;;;;;1767397;81;21608;-62
2022/06/17 08:47:09;;;;;;;2.70;1.25;;;27.00;43.60;;;;;;1767398;80;21032;-61
2022/06/17 08:49:57;;;;;;;3.52;1.50;;;27.10;43.80;;;;;;1766996;80;21130;-59
2022/06/17 08:52:38;;;;;;;2.15;1.22;;;27.20;43.80;;;;;;1766875;80;21639;-60
2022/06/17 08:55:23;;;;;;;3.65;2.47;;;27.30;43.20;;;;;;1755448;81;21075;-60
2022/06/17 08:58:07;;;;;;;4.90;1.50;;;27.30;43.60;;;;;;1767348;81;21111;-60
2022/06/17 09:00:51;;;;;;;6.90;2.33;;;27.30;43.70;;;;;;1767830;80;21052;-63
2022/06/17 09:03:38;;;;;;;2.73;1.67;;;27.30;43.80;;;;;;1767436;81;21651;-64
2022/06/17 09:06:27;;;;;;;2.17;1.30;;;27.40;43.60;;;;;;1766846;80;21193;-64
2022/06/17 09:09:20;;;;;;;2.25;1.20;;;27.50;43.40;;;;;;1767450;80;21193;-63
2022/06/17 09:12:11;;;;;;;3.27;1.32;;;27.60;43.00;;;;;;1820307;78;21058;-62
2022/06/17 09:15:02;;;;;;;3.80;1.50;;;27.70;43.20;;;;;;1784417;80;21202;-59
2022/06/17 09:17:57;;;;;;;2.42;1.37;;;27.60;42.70;;;;;;1820494;79;21071;-66
2022/06/17 09:20:29;;;;;;;1.62;1.25;;;27.60;42.90;;;;;;1820797;78;21105;-63
2022/06/17 09:23:01;;;;;;;4.55;1.50;;;27.60;43.20;;;;;;1783343;80;21133;-61
2022/06/17 09:25:43;;;;;;;2.52;1.40;;;27.70;42.80;;;;;;1784144;79;21124;-69
2022/06/17 09:28:17;;;;;;;6.35;2.08;;;27.80;42.50;;;;;;1819059;78;21046;-70
2022/06/17 09:30:47;;;;;;;;;;;27.80;42.50;;;;;;1813470;78;21550;-67
2022/06/17 09:33:27;;;;;;;2.35;1.17;;;27.80;41.00;;;;;;1818990;79;20117;-66
2022/06/17 09:36:11;;;;;;;5.47;1.60;;;27.90;42.90;;;;;;1818461;78;21511;-67
2022/06/17 09:38:52;;;;;;;2.65;1.57;;;28.00;42.80;;;;;;1767104;79;21113;-67
2022/06/17 09:41:36;;;;;;;7.37;1.57;;;28.10;42.30;;;;;;1819357;78;21049;-67
2022/06/17 09:44:17;;;;;;;3.40;1.23;;;28.10;42.00;;;;;;1819675;78;21070;-65
2022/06/17 09:47:14;;;;;;;2.30;1.15;;;28.20;42.20;;;;;;1819288;79;21124;-66
2022/06/17 09:49:49;;;;;;;2.30;1.20;;;28.20;41.90;;;;;;1819263;79;21057;-66
2022/06/17 09:52:21;;;;;;;;;;;28.40;42.00;;;;;;1822179;79;21120;-65
2022/06/17 09:55:02;;;;;;;2.65;1.30;;;28.50;41.80;;;;;;1818800;78;20157;-67
2022/06/17 09:57:40;;;;;;;3.58;1.60;;;28.50;40.80;;;;;;1819002;78;21092;-63
2022/06/17 10:00:13;;;;;;;5.78;1.70;;;28.50;40.90;;;;;;1817968;79;21053;-64
2022/06/17 10:02:53;;;;;;;6.30;1.65;;;28.50;40.50;;;;;;1818841;79;21504;-62
2022/06/17 10:08:22;;;;;;;4.90;1.50;;;28.30;40.00;;;;;;1794550;78;21112;-69
2022/06/17 10:11:00;;;;;;;3.52;1.40;;;28.30;40.30;;;;;;1794631;78;21124;-65
2022/06/17 10:13:44;;;;;;;2.98;1.65;;;28.30;40.10;;;;;;1793430;78;21147;-63
2022/06/17 10:19:36;;;;;;;1.67;1.25;;;28.30;40.00;;;;;;1794686;78;21152;-67
2022/06/17 10:22:28;;;;;;;2.40;1.12;;;28.00;39.70;;;;;;1901544;75;20995;-64
2022/06/17 10:25:17;;;;;;;2.35;1.30;;;27.90;39.70;;;;;;1900601;75;21563;-63
2022/06/17 10:28:13;;;;;;;1.80;1.20;;;27.90;39.40;;;;;;1901530;75;21140;-65
2022/06/17 10:30:45;;;;;;;5.40;1.20;;;28.00;39.80;;;;;;1901482;75;21074;-61
2022/06/17 10:33:16;;;;;;;4.50;1.60;;;28.20;40.20;;;;;;1901536;75;20999;-63
2022/06/17 10:35:47;;;;;;;1.90;1.25;;;28.30;39.90;;;;;;1901583;75;21046;-62
2022/06/17 10:38:25;;;;;;;1.75;1.45;;;28.50;39.80;;;;;;1901549;75;21070;-64
2022/06/17 10:40:55;;;;;;;3.10;1.17;;;28.60;39.50;;;;;;1900762;73;21112;-63
2022/06/17 10:43:26;;;;;;;3.10;1.37;;;28.60;39.30;;;;;;1901572;75;21007;-65
2022/06/17 10:45:56;;;;;;;3.58;1.20;;;28.70;40.00;;;;;;1891645;75;21600;-57
2022/06/17 10:48:36;;;;;;;1.57;1.10;;;28.80;39.00;;;;;;1901655;75;20999;-65
2022/06/17 10:51:07;;;;;;;1.45;1.22;;;28.80;38.40;;;;;;1900840;75;21180;-62
2022/06/17 10:53:51;;;;;;;4.75;2.55;;;28.80;39.20;;;;;;1901337;75;21096;-63
2022/06/17 10:56:39;;;;;;;3.40;2.20;;;28.90;39.00;;;;;;1867865;75;21458;-67
2022/06/17 10:59:11;;;;;;;2.47;1.12;;;28.90;38.60;;;;;;1901169;73;21124;-64
2022/06/17 11:01:50;;;;;;;2.50;1.57;;;29.00;38.60;;;;;;1901391;75;21114;-66
2022/06/17 11:04:27;;;;;;;3.52;1.52;;;29.00;39.00;;;;;;1901552;75;21109;-63
2022/06/17 11:07:02;;;;;;;3.27;1.47;;;29.10;39.00;;;;;;1898463;73;21143;-66
2022/06/17 11:09:40;;;;;;;11.65;2.42;;;29.20;39.30;;;;;;1901570;75;21142;-65
2022/06/17 11:12:19;;;;;;;2.80;1.25;;;29.20;39.50;;;;;;1901740;75;21524;-63
2022/06/17 11:14:51;;;;;;;16.93;3.55;;;29.20;37.90;;;;;;1901575;75;21523;-65
2022/06/17 11:17:45;;;;;;;5.60;1.45;;;29.20;38.30;;;;;;1902256;75;21493;-65
2022/06/17 11:20:23;;;;;;;3.53;1.10;;;29.20;38.40;;;;;;1901829;74;21003;-64
2022/06/17 11:22:55;;;;;;;4.90;1.50;;;29.40;38.30;;;;;;1895781;74;21027;-65
2022/06/17 11:25:30;;;;;;;4.12;1.60;;;29.50;37.70;;;;;;1895932;74;21035;-66
2022/06/17 11:28:05;;;;;;;1.75;1.22;;;29.50;37.60;;;;;;1895096;76;21050;-66
2022/06/17 11:30:37;;;;;;;3.98;1.27;;;29.50;37.40;;;;;;1879516;76;21041;-66
2022/06/17 11:33:09;;;;;;;4.00;1.77;;;29.60;37.40;;;;;;1896028;76;21007;-67
2022/06/17 11:35:40;;;;;;;2.62;1.30;;;29.70;37.60;;;;;;1892717;75;21051;-67
2022/06/17 11:38:14;;;;;;;1.72;1.27;;;29.80;38.20;;;;;;1895939;76;21167;-67
2022/06/17 11:40:52;;;;;;;2.42;1.37;;;29.80;37.50;;;;;;1896039;76;21426;-66
2022/06/17 11:43:33;;;;;;;2.65;1.20;;;29.70;38.40;;;;;;1895026;75;21429;-67
2022/06/17 11:46:22;;;;;;;2.75;1.50;;;29.70;38.20;;;;;;1838706;76;21211;-67
2022/06/17 11:48:54;;;;;;;2.15;1.30;;;29.70;37.80;;;;;;1848214;78;21488;-67
2022/06/17 11:51:35;;;;;;;5.62;1.55;;;29.70;37.60;;;;;;1848113;76;21061;-67
2022/06/17 11:54:07;;;;;;;2.75;1.30;;;29.70;38.20;;;;;;1848289;78;21437;-67
2022/06/17 11:56:42;;;;;;;5.25;4.75;;;29.70;38.60;;;;;;1848221;76;21447;-67
2022/06/17 11:59:17;;;;;;;2.90;1.32;;;29.80;37.90;;;;;;1848248;78;21030;-67
2022/06/17 12:01:51;;;;;;;3.02;1.50;;;29.80;38.00;;;;;;1848156;78;21042;-67
2022/06/17 12:04:33;;;;;;;3.15;1.55;;;29.70;37.30;;;;;;1844173;77;21057;-67
2022/06/17 12:07:02;;;;;;;4.35;1.60;;;29.70;38.10;;;;;;1846470;76;21010;-67
2022/06/17 12:09:34;;;;;;;4.65;1.30;;;29.70;37.50;;;;;;1848237;78;21029;-67
2022/06/17 12:12:06;;;;;;;2.52;1.20;;;29.60;37.70;;;;;;1848115;77;21038;-67
2022/06/17 12:14:50;;;;;;;2.55;1.20;;;29.60;37.80;;;;;;1847868;77;21092;-67
2022/06/17 12:17:21;;;;;;;2.67;1.40;;;29.60;38.30;;;;;;1848316;78;21154;-67
2022/06/17 12:19:51;;;;;;;2.72;1.70;;;29.70;38.50;;;;;;1848228;78;21080;-67
2022/06/17 12:22:28;;;;;;;4.83;1.50;;;29.80;38.70;;;;;;1848147;78;21081;-67
2022/06/17 12:25:20;;;;;;;5.20;1.77;;;29.90;38.40;;;;;;1846742;77;21038;-66
2022/06/17 12:27:55;;;;;;;5.03;2.08;;;29.90;38.80;;;;;;1847391;78;21156;-66
2022/06/17 12:30:36;;;;;;;1.72;1.30;;;29.90;39.00;;;;;;1848414;77;21484;-66
2022/06/17 12:33:17;;;;;;;2.33;1.70;;;29.90;38.40;;;;;;1847806;78;21091;-67
2022/06/17 12:36:09;;;;;;;4.65;1.72;;;29.80;38.00;;;;;;1819579;78;21025;-67
2022/06/17 12:39:00;;;;;;;3.50;1.65;;;29.70;38.40;;;;;;1847735;78;21068;-67
2022/06/17 12:41:35;;;;;;;1.87;1.42;;;29.60;38.50;;;;;;1848199;78;21155;-67
2022/06/17 12:44:22;;;;;;;3.02;1.70;;;29.50;38.60;;;;;;1847646;76;21473;-67
2022/06/17 12:46:56;;;;;;;3.12;1.62;;;29.50;39.10;;;;;;1850489;76;21057;-67
2022/06/17 12:53:20;;;;;;;3.27;1.80;;;29.60;39.50;;;;;;1857271;77;21041;-67
2022/06/17 12:55:17;;;;;;;3.10;1.80;;;29.70;39.40;;;;;;1847935;76;21042;-67
2022/06/17 12:58:00;;;;;;;2.33;1.52;;;29.70;39.70;;;;;;1856413;77;21045;-68
2022/06/17 13:00:47;;;;;;;5.12;1.57;;;29.80;39.50;;;;;;1856145;77;21119;-67
2022/06/17 13:03:25;;;;;;;2.95;1.60;;;29.80;38.80;;;;;;1857114;76;21060;-67
2022/06/17 13:05:56;;;;;;;4.85;1.70;;;29.70;39.00;;;;;;1856523;77;21453;-68
2022/06/17 13:08:43;;;;;;;2.35;1.60;;;29.50;39.30;;;;;;1856981;77;21033;-67
2022/06/17 13:11:20;;;;;;;7.17;2.15;;;29.50;39.80;;;;;;1855869;77;21584;-67
2022/06/17 13:13:55;;;;;;;2.30;1.47;;;29.60;39.10;;;;;;1857260;77;21589;-67
2022/06/17 13:16:42;;;;;;;1.40;1.30;;;29.50;38.70;;;;;;1857199;77;21097;-66
2022/06/17 13:19:29;;;;;;;5.75;1.85;;;29.40;38.60;;;;;;1857113;77;21040;-67
2022/06/17 13:22:01;;;;;;;5.75;1.65;;;29.40;39.30;;;;;;1856567;76;21440;-67
2022/06/17 13:24:36;;;;;;;3.55;1.60;;;29.50;39.20;;;;;;1857045;77;21134;-67
2022/06/17 13:27:13;;;;;;;6.85;1.60;;;29.60;39.20;;;;;;1856999;76;21026;-68
2022/06/17 13:29:46;;;;;;;3.02;1.72;;;29.50;39.30;;;;;;1855771;77;21503;-68
2022/06/17 13:32:33;;;;;;;4.97;1.75;;;29.50;39.20;;;;;;1857242;76;21033;-68
2022/06/17 13:35:05;;;;;;;3.02;1.50;;;29.50;39.20;;;;;;1856070;76;21030;-67
2022/06/17 13:37:40;;;;;;;2.30;1.60;;;29.40;39.30;;;;;;1857101;77;21013;-67
2022/06/17 13:40:20;;;;;;;3.08;1.62;;;29.40;39.20;;;;;;1857276;77;21068;-67
2022/06/17 13:42:50;;;;;;;3.72;1.40;;;29.30;39.30;;;;;;1853656;76;21057;-67
2022/06/17 13:45:28;;;;;;;2.87;1.65;;;29.30;40.10;;;;;;1857186;77;21092;-67